createdAt,value
2023-04-09T00:00:28.956Z,23.48
2023-04-09T00:01:29.210Z,23.48
2023-04-09T00:02:29.444Z,23.48
2023-04-09T00:03:29.760Z,23.48
2023-04-09T00:04:30.047Z,22.83
2023-04-09T00:05:30.314Z,23.15
2023-04-09T00:06:32.540Z,23.15
2023-04-09T00:07:30.781Z,23.15
2023-04-09T00:08:31.964Z,23.15
2023-04-09T00:09:32.093Z,23.15
2023-04-09T00:10:32.208Z,23.15
2023-04-09T00:11:31.449Z,23.48
2023-04-09T00:12:32.569Z,23.48
2023-04-09T00:13:39.176Z,23.15
2023-04-09T00:14:33.090Z,23.80
2023-04-09T00:15:34.455Z,23.80
2023-04-09T00:16:32.801Z,23.80
2023-04-09T00:17:33.067Z,23.15
2023-04-09T00:18:33.304Z,23.48
2023-04-09T00:19:33.575Z,23.48
2023-04-09T00:21:27.297Z,23.15
2023-04-09T00:22:25.566Z,23.48
2023-04-09T00:23:26.810Z,23.80
2023-04-09T00:24:27.958Z,23.48
2023-04-09T00:25:26.107Z,23.48
2023-04-09T00:26:26.248Z,23.80
2023-04-09T00:27:26.440Z,23.80
2023-04-09T00:28:27.525Z,23.48
2023-04-09T00:29:28.632Z,23.48
2023-04-09T00:30:28.811Z,23.80
2023-04-09T00:31:26.994Z,23.48
2023-04-09T00:32:28.692Z,23.80
2023-04-09T00:33:27.385Z,23.80
2023-04-09T00:34:29.482Z,23.80
2023-04-09T00:35:29.689Z,24.12
2023-04-09T00:36:29.924Z,23.48
2023-04-09T00:37:29.105Z,23.80
2023-04-09T00:38:30.272Z,23.48
2023-04-09T00:39:28.420Z,23.80
2023-04-09T00:40:28.647Z,23.15
2023-04-09T00:41:30.790Z,23.48
2023-04-09T00:42:31.756Z,23.80
2023-04-09T00:43:29.458Z,23.80
2023-04-09T00:44:31.129Z,23.48
2023-04-09T00:45:31.811Z,23.80
2023-04-09T00:46:30.438Z,23.48
2023-04-09T00:47:32.570Z,23.80
2023-04-09T00:48:31.671Z,24.12
2023-04-09T00:49:30.842Z,23.48
2023-04-09T00:50:31.030Z,23.48
2023-04-09T00:51:33.119Z,23.80
2023-04-09T00:52:31.684Z,23.80
2023-04-09T00:53:31.336Z,23.15
2023-04-09T00:54:32.425Z,23.15
2023-04-09T00:55:31.585Z,23.48
2023-04-09T00:56:32.313Z,23.80
2023-04-09T00:57:32.000Z,23.48
2023-04-09T00:58:32.181Z,23.48
2023-04-09T00:59:33.296Z,23.48
2023-04-09T01:00:32.502Z,24.44
2023-04-09T01:01:32.889Z,23.80
2023-04-09T01:02:34.193Z,24.12
2023-04-09T01:03:35.626Z,24.12
2023-04-09T01:04:33.847Z,24.44
2023-04-09T01:05:35.946Z,24.12
2023-04-09T01:06:34.271Z,23.80
2023-04-09T01:07:34.507Z,24.12
2023-04-09T01:08:35.518Z,24.12
2023-04-09T01:09:34.698Z,23.80
2023-04-09T01:10:36.892Z,23.48
2023-04-09T01:11:36.042Z,23.80
2023-04-09T01:12:35.285Z,24.12
2023-04-09T01:13:37.408Z,23.80
2023-04-09T01:14:37.470Z,24.12
2023-04-09T01:15:35.584Z,24.12
2023-04-09T01:16:36.786Z,24.12
2023-04-09T01:17:36.100Z,24.44
2023-04-09T01:18:38.041Z,24.77
2023-04-09T01:19:37.629Z,25.41
2023-04-09T01:20:39.764Z,25.09
2023-04-09T01:21:36.949Z,25.41
2023-04-09T01:22:37.106Z,25.41
2023-04-09T01:23:38.307Z,25.41
2023-04-09T01:24:38.379Z,25.73
2023-04-09T01:25:38.552Z,25.41
2023-04-09T01:26:37.758Z,25.09
2023-04-09T01:27:37.902Z,25.41
2023-04-09T01:28:39.081Z,25.73
2023-04-09T01:29:38.402Z,25.09
2023-04-09T01:30:40.546Z,25.41
2023-04-09T01:31:39.688Z,25.41
2023-04-09T01:32:38.880Z,25.41
2023-04-09T01:33:40.123Z,25.41
2023-04-09T01:34:39.347Z,25.73
2023-04-09T01:35:40.396Z,25.41
2023-04-09T01:36:40.244Z,25.09
2023-04-09T01:37:41.424Z,25.09
2023-04-09T01:38:40.094Z,25.73
2023-04-09T01:39:40.250Z,25.09
2023-04-09T01:40:42.352Z,25.09
2023-04-09T01:41:41.452Z,25.09
2023-04-09T01:42:42.533Z,24.77
2023-04-09T01:43:40.709Z,25.41
2023-04-09T01:44:40.888Z,25.41
2023-04-09T01:45:43.082Z,24.44
2023-04-09T01:46:41.238Z,25.09
2023-04-09T01:47:41.411Z,24.44
2023-04-09T01:48:41.598Z,24.12
2023-04-09T01:49:41.752Z,25.09
2023-04-09T01:50:41.994Z,24.44
2023-04-09T01:51:44.142Z,25.41
2023-04-09T01:52:42.315Z,25.09
2023-04-09T01:53:42.471Z,25.41
2023-04-09T01:54:44.652Z,25.09
2023-04-09T01:55:42.776Z,25.41
2023-04-09T01:56:45.841Z,24.77
2023-04-09T01:57:43.047Z,24.77
2023-04-09T01:58:44.262Z,25.73
2023-04-09T01:59:43.421Z,25.09
2023-04-09T02:00:43.589Z,25.09
2023-04-09T02:01:45.776Z,24.77
2023-04-09T02:02:45.096Z,24.77
2023-04-09T02:03:44.368Z,25.09
2023-04-09T02:04:46.019Z,24.77
2023-04-09T02:05:45.629Z,24.77
2023-04-09T02:06:44.732Z,23.80
2023-04-09T02:07:45.797Z,24.44
2023-04-09T02:08:45.904Z,24.77
2023-04-09T02:09:47.000Z,24.44
2023-04-09T02:10:45.156Z,24.77
2023-04-09T02:11:46.774Z,24.77
2023-04-09T02:12:45.441Z,24.44
2023-04-09T02:13:45.578Z,24.44
2023-04-09T02:14:47.499Z,25.09
2023-04-09T02:15:48.629Z,24.77
2023-04-09T02:16:47.211Z,24.44
2023-04-09T02:17:47.349Z,24.77
2023-04-09T02:18:46.534Z,25.09
2023-04-09T02:19:51.207Z,24.77
2023-04-09T02:20:48.788Z,24.77
2023-04-09T02:21:48.381Z,25.09
2023-04-09T02:22:47.018Z,24.77
2023-04-09T02:23:47.137Z,24.77
2023-04-09T02:24:49.235Z,24.77
2023-04-09T02:25:48.392Z,24.77
2023-04-09T02:26:48.542Z,24.44
2023-04-09T02:27:47.700Z,24.44
2023-04-09T02:28:47.855Z,24.77
2023-04-09T02:29:47.964Z,24.77
2023-04-09T02:30:48.203Z,24.44
2023-04-09T02:31:50.335Z,24.77
2023-04-09T02:32:49.133Z,25.09
2023-04-09T02:33:49.798Z,25.41
2023-04-09T02:34:49.921Z,24.77
2023-04-09T02:35:53.297Z,24.77
2023-04-09T02:36:49.432Z,25.09
2023-04-09T02:37:49.620Z,24.77
2023-04-09T02:38:50.893Z,24.77
2023-04-09T02:39:51.196Z,24.77
2023-04-09T02:40:50.425Z,24.77
2023-04-09T02:41:50.622Z,24.44
2023-04-09T02:42:51.734Z,24.44
2023-04-09T02:43:50.918Z,24.77
2023-04-09T02:44:51.220Z,24.44
2023-04-09T02:45:53.416Z,23.80
2023-04-09T02:46:51.650Z,24.44
2023-04-09T02:47:53.807Z,24.77
2023-04-09T02:48:54.172Z,24.44
2023-04-09T02:49:54.467Z,24.77
2023-04-09T02:50:54.099Z,24.77
2023-04-09T02:51:54.207Z,24.77
2023-04-09T02:52:53.833Z,24.77
2023-04-09T02:53:54.067Z,24.77
2023-04-09T02:54:55.815Z,25.09
2023-04-09T02:55:54.464Z,25.09
2023-04-09T02:56:54.551Z,24.77
2023-04-09T02:57:55.709Z,24.77
2023-04-09T02:58:54.172Z,25.09
2023-04-09T02:59:54.164Z,24.77
2023-04-09T03:00:56.323Z,24.77
2023-04-09T03:01:55.483Z,24.77
2023-04-09T03:02:56.791Z,24.77
2023-04-09T03:03:56.967Z,24.44
2023-04-09T03:04:55.207Z,25.09
2023-04-09T03:06:01.536Z,24.77
2023-04-09T03:06:57.660Z,24.77
2023-04-09T03:07:57.858Z,24.44
2023-04-09T03:08:56.552Z,24.44
2023-04-09T03:09:57.152Z,24.12
2023-04-09T03:10:57.271Z,24.44
2023-04-09T03:11:56.505Z,25.41
2023-04-09T03:12:56.646Z,25.09
2023-04-09T03:13:58.789Z,24.44
2023-04-09T03:14:56.910Z,24.44
2023-04-09T03:15:58.040Z,24.12
2023-04-09T03:16:57.384Z,24.12
2023-04-09T03:17:57.600Z,24.12
2023-04-09T03:18:57.830Z,24.77
2023-04-09T03:19:58.983Z,24.44
2023-04-09T03:21:01.817Z,24.77
2023-04-09T03:21:58.511Z,24.44
2023-04-09T03:22:59.878Z,24.77
2023-04-09T03:23:59.135Z,24.77
2023-04-09T03:25:02.238Z,24.44
2023-04-09T03:25:59.369Z,24.44
2023-04-09T03:27:01.517Z,24.44
2023-04-09T03:28:00.590Z,24.77
2023-04-09T03:29:01.322Z,24.44
2023-04-09T03:30:00.970Z,24.77
2023-04-09T03:31:03.822Z,24.77
2023-04-09T03:32:00.463Z,24.44
2023-04-09T03:33:02.700Z,24.44
2023-04-09T03:34:02.916Z,24.77
2023-04-09T03:35:01.038Z,24.77
2023-04-09T03:36:05.480Z,24.44
2023-04-09T03:37:05.522Z,24.44
2023-04-09T03:38:02.699Z,24.77
2023-04-09T03:39:03.832Z,24.77
2023-04-09T03:40:01.998Z,24.44
2023-04-09T03:41:02.177Z,24.44
2023-04-09T03:42:02.319Z,24.44
2023-04-09T03:43:03.992Z,24.77
2023-04-09T03:44:02.638Z,23.15
2023-04-09T03:45:04.241Z,24.44
2023-04-09T03:46:04.981Z,24.77
2023-04-09T03:47:03.152Z,24.77
2023-04-09T03:48:03.460Z,24.44
2023-04-09T03:49:05.897Z,23.80
2023-04-09T03:50:04.968Z,23.80
2023-04-09T03:51:04.127Z,23.15
2023-04-09T03:52:05.328Z,24.12
2023-04-09T03:53:05.415Z,24.12
2023-04-09T03:54:04.666Z,24.44
2023-04-09T03:55:08.786Z,24.44
2023-04-09T03:56:05.246Z,24.12
2023-04-09T03:57:06.939Z,24.77
2023-04-09T03:58:05.713Z,24.77
2023-04-09T03:59:06.750Z,24.44
2023-04-09T04:00:07.484Z,24.44
2023-04-09T04:01:06.181Z,24.44
2023-04-09T04:02:06.403Z,24.77
2023-04-09T04:03:08.625Z,24.12
2023-04-09T04:04:07.912Z,24.12
2023-04-09T04:05:08.526Z,26.70
2023-04-09T04:06:09.717Z,24.44
2023-04-09T04:07:09.820Z,25.09
2023-04-09T04:08:08.924Z,25.09
2023-04-09T04:09:08.247Z,24.77
2023-04-09T04:10:08.364Z,24.77
2023-04-09T04:11:08.777Z,25.09
2023-04-09T04:12:09.878Z,25.09
2023-04-09T04:13:10.032Z,25.09
2023-04-09T04:14:09.211Z,25.09
2023-04-09T04:15:09.469Z,25.09
2023-04-09T04:16:11.688Z,25.09
2023-04-09T04:17:10.971Z,25.09
2023-04-09T04:18:11.919Z,25.09
2023-04-09T04:19:11.950Z,25.09
2023-04-09T04:20:10.588Z,25.09
2023-04-09T04:21:10.816Z,24.77
2023-04-09T04:22:12.450Z,25.09
2023-04-09T04:23:12.057Z,24.77
2023-04-09T04:24:12.136Z,25.09
2023-04-09T04:25:11.352Z,25.09
2023-04-09T04:26:12.026Z,25.41
2023-04-09T04:27:11.664Z,24.77
2023-04-09T04:28:11.796Z,25.41
2023-04-09T04:29:12.915Z,25.09
2023-04-09T04:30:12.622Z,25.41
2023-04-09T04:31:14.306Z,25.09
2023-04-09T04:32:12.451Z,25.41
2023-04-09T04:33:15.036Z,25.41
2023-04-09T04:34:13.620Z,25.73
2023-04-09T04:35:14.732Z,25.09
2023-04-09T04:36:14.808Z,25.09
2023-04-09T04:37:12.990Z,25.09
2023-04-09T04:38:13.178Z,25.41
2023-04-09T04:39:14.264Z,25.09
2023-04-09T04:40:13.402Z,25.09
2023-04-09T04:41:13.572Z,25.41
2023-04-09T04:42:15.794Z,25.09
2023-04-09T04:43:15.857Z,25.09
2023-04-09T04:44:14.031Z,26.05
2023-04-09T04:45:15.181Z,25.41
2023-04-09T04:46:14.420Z,25.73
2023-04-09T04:47:15.580Z,25.41
2023-04-09T04:48:14.900Z,25.73
2023-04-09T04:49:19.087Z,25.73
2023-04-09T04:50:17.745Z,25.73
2023-04-09T04:51:15.432Z,25.73
2023-04-09T04:52:17.322Z,25.09
2023-04-09T04:53:15.988Z,25.09
2023-04-09T04:54:17.092Z,25.73
2023-04-09T04:55:16.260Z,25.09
2023-04-09T04:56:16.461Z,25.41
2023-04-09T04:57:17.682Z,25.73
2023-04-09T04:58:16.824Z,25.73
2023-04-09T04:59:16.961Z,25.41
2023-04-09T05:00:18.568Z,25.73
2023-04-09T05:01:17.370Z,25.41
2023-04-09T05:02:17.747Z,25.41
2023-04-09T05:03:19.548Z,25.41
2023-04-09T05:04:17.778Z,25.41
2023-04-09T05:05:18.856Z,25.41
2023-04-09T05:06:19.281Z,25.41
2023-04-09T05:07:18.419Z,25.41
2023-04-09T05:08:18.602Z,25.41
2023-04-09T05:09:21.267Z,25.73
2023-04-09T05:10:20.116Z,26.05
2023-04-09T05:11:21.286Z,25.73
2023-04-09T05:12:19.502Z,25.73
2023-04-09T05:13:20.625Z,25.41
2023-04-09T05:14:20.738Z,25.41
2023-04-09T05:15:24.024Z,25.73
2023-04-09T05:16:21.970Z,25.41
2023-04-09T05:17:21.747Z,25.73
2023-04-09T05:18:22.351Z,25.73
2023-04-09T05:19:21.172Z,25.73
2023-04-09T05:20:21.386Z,25.41
2023-04-09T05:21:23.473Z,25.73
2023-04-09T05:22:22.758Z,26.38
2023-04-09T05:23:21.890Z,26.05
2023-04-09T05:24:22.009Z,25.73
2023-04-09T05:25:22.458Z,26.05
2023-04-09T05:26:23.565Z,25.73
2023-04-09T05:27:22.711Z,26.05
2023-04-09T05:28:24.782Z,25.73
2023-04-09T05:29:23.588Z,26.05
2023-04-09T05:30:23.780Z,26.38
2023-04-09T05:31:23.429Z,26.38
2023-04-09T05:32:23.576Z,25.73
2023-04-09T05:33:23.744Z,26.05
2023-04-09T05:34:25.755Z,25.73
2023-04-09T05:35:25.643Z,25.41
2023-04-09T05:36:27.043Z,25.41
2023-04-09T05:37:24.762Z,26.05
2023-04-09T05:38:25.792Z,26.05
2023-04-09T05:39:26.912Z,25.41
2023-04-09T05:40:25.098Z,25.41
2023-04-09T05:41:25.309Z,25.41
2023-04-09T05:42:26.408Z,25.73
2023-04-09T05:43:25.568Z,25.73
2023-04-09T05:44:25.804Z,25.41
2023-04-09T05:45:27.842Z,25.73
2023-04-09T05:46:28.769Z,25.41
2023-04-09T05:47:26.989Z,25.41
2023-04-09T05:48:27.830Z,25.73
2023-04-09T05:49:26.553Z,25.41
2023-04-09T05:50:26.704Z,25.73
2023-04-09T05:51:27.968Z,26.05
2023-04-09T05:52:28.553Z,25.41
2023-04-09T05:53:27.178Z,26.05
2023-04-09T05:54:29.357Z,26.05
2023-04-09T05:55:28.499Z,25.73
2023-04-09T05:56:30.569Z,26.05
2023-04-09T05:57:27.680Z,25.41
2023-04-09T05:58:29.862Z,25.41
2023-04-09T05:59:28.050Z,26.05
2023-04-09T06:00:28.236Z,26.05
2023-04-09T06:01:28.380Z,26.05
2023-04-09T06:02:28.635Z,25.73
2023-04-09T06:03:28.977Z,26.05
2023-04-09T06:04:30.911Z,26.05
2023-04-09T06:05:31.591Z,26.05
2023-04-09T06:06:31.162Z,26.05
2023-04-09T06:07:29.800Z,26.70
2023-04-09T06:08:31.885Z,26.05
2023-04-09T06:09:31.703Z,26.38
2023-04-09T06:10:31.340Z,26.05
2023-04-09T06:11:32.479Z,26.38
2023-04-09T06:12:31.044Z,26.05
2023-04-09T06:13:31.850Z,26.05
2023-04-09T06:14:31.028Z,26.70
2023-04-09T06:15:31.240Z,26.70
2023-04-09T06:16:33.845Z,26.38
2023-04-09T06:17:31.500Z,26.38
2023-04-09T06:18:31.640Z,26.38
2023-04-09T06:19:36.727Z,26.38
2023-04-09T06:20:31.899Z,26.70
2023-04-09T06:21:34.649Z,26.38
2023-04-09T06:22:33.433Z,26.05
2023-04-09T06:23:33.760Z,26.38
2023-04-09T06:24:33.899Z,26.38
2023-04-09T06:25:33.087Z,26.05
2023-04-09T06:26:33.216Z,26.70
2023-04-09T06:27:33.342Z,26.38
2023-04-09T06:28:33.469Z,26.70
2023-04-09T06:29:35.069Z,26.70
2023-04-09T06:30:33.712Z,26.38
2023-04-09T06:31:33.940Z,26.70
2023-04-09T06:32:46.883Z,26.70
2023-04-09T06:33:34.501Z,26.05
2023-04-09T06:34:35.218Z,26.05
2023-04-09T06:35:35.894Z,26.05
2023-04-09T06:36:35.035Z,26.05
2023-04-09T06:37:36.171Z,26.70
2023-04-09T06:38:36.226Z,26.38
2023-04-09T06:39:37.437Z,26.38
2023-04-09T06:40:37.399Z,26.38
2023-04-09T06:41:37.988Z,26.05
2023-04-09T06:42:35.847Z,26.38
2023-04-09T06:43:37.951Z,26.70
2023-04-09T06:44:36.089Z,26.38
2023-04-09T06:45:36.185Z,26.05
2023-04-09T06:46:36.582Z,26.38
2023-04-09T06:47:37.160Z,26.38
2023-04-09T06:48:37.022Z,26.38
2023-04-09T06:49:37.772Z,26.70
2023-04-09T06:50:39.076Z,26.38
2023-04-09T06:51:39.668Z,26.38
2023-04-09T06:52:37.976Z,26.70
2023-04-09T06:53:40.136Z,26.38
2023-04-09T06:54:40.211Z,26.38
2023-04-09T06:55:40.339Z,26.70
2023-04-09T06:56:40.014Z,26.38
2023-04-09T06:57:38.660Z,26.38
2023-04-09T06:58:39.402Z,26.38
2023-04-09T06:59:39.125Z,26.38
2023-04-09T07:00:39.286Z,26.70
2023-04-09T07:01:40.759Z,26.70
2023-04-09T07:02:40.630Z,26.70
2023-04-09T07:03:40.094Z,26.05
2023-04-09T07:04:40.934Z,26.70
2023-04-09T07:05:42.042Z,26.70
2023-04-09T07:06:40.149Z,26.38
2023-04-09T07:07:40.318Z,26.38
2023-04-09T07:08:40.424Z,26.05
2023-04-09T07:09:41.477Z,26.38
2023-04-09T07:10:40.574Z,26.38
2023-04-09T07:11:40.753Z,26.38
2023-04-09T07:12:40.910Z,26.70
2023-04-09T07:13:41.030Z,26.38
2023-04-09T07:14:41.254Z,26.38
2023-04-09T07:15:42.663Z,26.38
2023-04-09T07:16:42.406Z,26.38
2023-04-09T07:17:41.652Z,26.70
2023-04-09T07:18:43.869Z,27.02
2023-04-09T07:19:45.111Z,26.70
2023-04-09T07:20:44.753Z,27.02
2023-04-09T07:21:42.392Z,26.70
2023-04-09T07:22:45.013Z,26.70
2023-04-09T07:23:42.608Z,26.38
2023-04-09T07:24:44.271Z,27.02
2023-04-09T07:25:44.900Z,26.70
2023-04-09T07:26:44.950Z,26.70
2023-04-09T07:27:43.137Z,26.70
2023-04-09T07:28:45.211Z,26.70
2023-04-09T07:29:43.383Z,26.70
2023-04-09T07:30:45.079Z,26.70
2023-04-09T07:31:43.731Z,26.70
2023-04-09T07:32:44.136Z,26.38
2023-04-09T07:33:45.873Z,26.38
2023-04-09T07:34:47.072Z,27.02
2023-04-09T07:35:46.744Z,26.70
2023-04-09T07:36:46.842Z,26.70
2023-04-09T07:37:44.967Z,27.02
2023-04-09T07:38:46.570Z,26.70
2023-04-09T07:39:46.153Z,26.38
2023-04-09T07:40:46.274Z,26.70
2023-04-09T07:41:46.519Z,27.02
2023-04-09T07:42:45.621Z,26.70
2023-04-09T07:43:46.767Z,26.70
2023-04-09T07:44:47.055Z,26.70
2023-04-09T07:45:47.817Z,26.70
2023-04-09T07:46:47.220Z,26.70
2023-04-09T07:47:48.017Z,26.70
2023-04-09T07:48:48.571Z,26.70
2023-04-09T07:49:48.235Z,26.70
2023-04-09T07:50:48.484Z,26.38
2023-04-09T07:51:48.625Z,26.38
2023-04-09T07:52:47.722Z,26.70
2023-04-09T07:53:47.842Z,26.70
2023-04-09T07:54:48.975Z,27.02
2023-04-09T07:55:50.117Z,27.34
2023-04-09T07:56:48.258Z,27.34
2023-04-09T07:57:48.382Z,26.70
2023-04-09T07:58:48.458Z,27.02
2023-04-09T07:59:48.620Z,27.02
2023-04-09T08:00:51.701Z,27.34
2023-04-09T08:01:49.901Z,27.34
2023-04-09T08:02:49.228Z,27.02
2023-04-09T08:03:50.081Z,27.02
2023-04-09T08:04:50.584Z,27.02
2023-04-09T08:05:52.217Z,27.34
2023-04-09T08:06:52.367Z,27.02
2023-04-09T08:07:50.101Z,27.02
2023-04-09T08:08:50.361Z,27.02
2023-04-09T08:09:50.642Z,26.70
2023-04-09T08:10:50.719Z,27.02
2023-04-09T08:11:50.877Z,27.02
2023-04-09T08:12:51.096Z,27.02
2023-04-09T08:13:51.252Z,27.34
2023-04-09T08:14:51.404Z,26.70
2023-04-09T08:15:53.532Z,27.34
2023-04-09T08:16:52.749Z,27.34
2023-04-09T08:17:52.063Z,27.67
2023-04-09T08:18:55.710Z,27.02
2023-04-09T08:19:52.671Z,27.02
2023-04-09T08:20:53.783Z,27.02
2023-04-09T08:21:53.896Z,27.02
2023-04-09T08:22:52.998Z,27.02
2023-04-09T08:23:53.349Z,27.02
2023-04-09T08:24:55.423Z,27.02
2023-04-09T08:25:53.545Z,27.34
2023-04-09T08:26:55.629Z,27.34
2023-04-09T08:27:55.253Z,27.02
2023-04-09T08:28:54.327Z,27.02
2023-04-09T08:29:55.232Z,27.02
2023-04-09T08:30:54.822Z,27.02
2023-04-09T08:31:56.959Z,27.34
2023-04-09T08:32:56.224Z,27.02
2023-04-09T08:33:58.353Z,27.34
2023-04-09T08:34:55.956Z,27.34
2023-04-09T08:36:05.889Z,27.34
2023-04-09T08:36:55.028Z,27.34
2023-04-09T08:37:57.209Z,27.34
2023-04-09T08:38:55.725Z,27.67
2023-04-09T08:39:55.747Z,27.02
2023-04-09T08:40:55.858Z,27.02
2023-04-09T08:41:57.669Z,27.34
2023-04-09T08:42:57.255Z,27.34
2023-04-09T08:43:58.843Z,27.02
2023-04-09T08:44:56.647Z,27.34
2023-04-09T08:45:57.880Z,27.02
2023-04-09T08:46:59.790Z,27.02
2023-04-09T08:47:57.584Z,27.34
2023-04-09T08:49:00.130Z,27.02
2023-04-09T08:49:58.949Z,27.67
2023-04-09T08:50:59.842Z,27.67
2023-04-09T08:51:59.505Z,27.67
2023-04-09T08:52:58.640Z,27.99
2023-04-09T08:54:00.080Z,27.67
2023-04-09T08:55:02.624Z,27.34
2023-04-09T08:55:59.383Z,27.34
2023-04-09T08:56:59.529Z,27.67
2023-04-09T08:58:00.229Z,27.34
2023-04-09T08:59:01.424Z,27.34
2023-04-09T09:00:00.203Z,27.67
2023-04-09T09:01:00.695Z,27.34
2023-04-09T09:02:00.672Z,27.99
2023-04-09T09:03:02.664Z,27.67
2023-04-09T09:04:03.134Z,27.34
2023-04-09T09:05:02.678Z,27.99
2023-04-09T09:06:14.047Z,27.34
2023-04-09T09:07:02.002Z,27.34
2023-04-09T09:08:01.742Z,27.34
2023-04-09T09:09:02.921Z,27.34
2023-04-09T09:10:03.089Z,27.34
2023-04-09T09:11:02.291Z,27.34
2023-04-09T09:12:02.523Z,27.67
2023-04-09T09:13:04.571Z,27.67
2023-04-09T09:14:02.687Z,27.99
2023-04-09T09:15:04.819Z,27.67
2023-04-09T09:16:04.945Z,27.67
2023-04-09T09:17:03.131Z,27.67
2023-04-09T09:18:05.324Z,27.67
2023-04-09T09:19:03.485Z,27.67
2023-04-09T09:20:04.588Z,27.67
2023-04-09T09:21:05.233Z,27.67
2023-04-09T09:22:03.863Z,27.67
2023-04-09T09:23:07.176Z,27.67
2023-04-09T09:24:05.224Z,27.67
2023-04-09T09:25:04.623Z,27.67
2023-04-09T09:26:06.695Z,27.67
2023-04-09T09:27:07.118Z,27.67
2023-04-09T09:28:05.279Z,27.99
2023-04-09T09:29:05.591Z,27.67
2023-04-09T09:30:05.864Z,27.34
2023-04-09T09:31:09.644Z,27.99
2023-04-09T09:32:08.315Z,27.67
2023-04-09T09:33:06.699Z,27.67
2023-04-09T09:34:07.848Z,27.67
2023-04-09T09:35:08.052Z,27.67
2023-04-09T09:36:11.913Z,27.34
2023-04-09T09:37:08.716Z,27.67
2023-04-09T09:38:08.097Z,27.67
2023-04-09T09:39:07.752Z,27.67
2023-04-09T09:40:09.836Z,27.67
2023-04-09T09:41:08.132Z,27.99
2023-04-09T09:42:08.434Z,27.99
2023-04-09T09:43:08.597Z,27.67
2023-04-09T09:44:09.728Z,27.67
2023-04-09T09:45:11.487Z,27.67
2023-04-09T09:46:10.268Z,27.99
2023-04-09T09:47:09.482Z,27.67
2023-04-09T09:48:11.626Z,27.99
2023-04-09T09:49:09.749Z,27.99
2023-04-09T09:50:10.015Z,27.67
2023-04-09T09:51:10.187Z,27.34
2023-04-09T09:52:10.354Z,27.34
2023-04-09T09:53:12.014Z,27.67
2023-04-09T09:54:10.737Z,27.34
2023-04-09T09:55:12.034Z,27.67
2023-04-09T09:56:12.477Z,27.67
2023-04-09T09:57:13.212Z,27.67
2023-04-09T09:58:12.087Z,27.67
2023-04-09T09:59:13.746Z,27.67
2023-04-09T10:00:13.492Z,27.99
2023-04-09T10:01:14.692Z,27.02
2023-04-09T10:02:14.092Z,27.67
2023-04-09T10:03:14.565Z,27.99
2023-04-09T10:04:13.252Z,27.99
2023-04-09T10:05:13.496Z,27.99
2023-04-09T10:06:16.321Z,27.67
2023-04-09T10:07:13.936Z,27.67
2023-04-09T10:08:14.213Z,27.34
2023-04-09T10:09:16.353Z,27.67
2023-04-09T10:10:14.569Z,27.99
2023-04-09T10:11:14.696Z,27.99
2023-04-09T10:12:16.820Z,27.67
2023-04-09T10:13:17.170Z,28.63
2023-04-09T10:14:17.939Z,27.67
2023-04-09T10:15:16.748Z,27.99
2023-04-09T10:16:17.007Z,27.67
2023-04-09T10:17:16.169Z,27.99
2023-04-09T10:18:18.259Z,27.99
2023-04-09T10:19:21.851Z,27.99
2023-04-09T10:20:16.491Z,27.99
2023-04-09T10:21:18.614Z,27.99
2023-04-09T10:22:16.770Z,27.99
2023-04-09T10:23:16.892Z,27.67
2023-04-09T10:24:17.143Z,27.99
2023-04-09T10:25:17.329Z,28.31
2023-04-09T10:26:19.799Z,27.67
2023-04-09T10:27:18.908Z,27.99
2023-04-09T10:28:18.132Z,27.99
2023-04-09T10:29:19.196Z,28.31
2023-04-09T10:30:19.744Z,27.99
2023-04-09T10:31:19.298Z,28.31
2023-04-09T10:32:18.440Z,27.99
2023-04-09T10:33:20.579Z,27.99
2023-04-09T10:34:18.703Z,27.99
2023-04-09T10:35:18.852Z,27.99
2023-04-09T10:36:20.171Z,28.31
2023-04-09T10:37:19.315Z,27.99
2023-04-09T10:38:21.435Z,27.99
2023-04-09T10:39:19.769Z,27.99
2023-04-09T10:40:21.430Z,28.31
2023-04-09T10:41:21.056Z,27.99
2023-04-09T10:42:22.164Z,28.31
2023-04-09T10:43:20.281Z,28.31
2023-04-09T10:44:21.455Z,28.31
2023-04-09T10:45:27.102Z,28.31
2023-04-09T10:46:23.244Z,27.67
2023-04-09T10:47:27.463Z,28.31
2023-04-09T10:48:21.833Z,27.99
2023-04-09T10:49:23.457Z,27.99
2023-04-09T10:50:24.023Z,27.67
2023-04-09T10:51:22.967Z,27.99
2023-04-09T10:52:23.112Z,28.31
2023-04-09T10:53:22.676Z,28.31
2023-04-09T10:54:23.725Z,27.99
2023-04-09T10:55:24.268Z,28.31
2023-04-09T10:56:22.483Z,27.99
2023-04-09T10:57:24.640Z,28.31
2023-04-09T10:58:22.827Z,27.67
2023-04-09T10:59:24.387Z,28.31
2023-04-09T11:00:25.045Z,28.31
2023-04-09T11:01:23.186Z,27.99
2023-04-09T11:02:25.436Z,27.99
2023-04-09T11:03:25.786Z,27.99
2023-04-09T11:04:25.134Z,27.99
2023-04-09T11:05:23.764Z,28.31
2023-04-09T11:06:23.894Z,27.67
2023-04-09T11:07:23.980Z,28.31
2023-04-09T11:08:24.072Z,28.31
2023-04-09T11:09:24.273Z,28.31
2023-04-09T11:10:24.399Z,28.31
2023-04-09T11:11:24.565Z,27.99
2023-04-09T11:12:26.758Z,28.31
2023-04-09T11:13:25.140Z,28.63
2023-04-09T11:14:26.281Z,28.31
2023-04-09T11:15:25.582Z,27.99
2023-04-09T11:16:27.952Z,27.99
2023-04-09T11:17:25.997Z,27.99
2023-04-09T11:18:26.171Z,27.99
2023-04-09T11:19:27.762Z,27.99
2023-04-09T11:20:27.289Z,27.99
2023-04-09T11:21:27.080Z,27.99
2023-04-09T11:22:26.519Z,27.99
2023-04-09T11:23:26.658Z,27.99
2023-04-09T11:24:27.712Z,28.31
2023-04-09T11:25:27.811Z,27.99
2023-04-09T11:26:28.691Z,28.31
2023-04-09T11:27:27.328Z,28.63
2023-04-09T11:28:27.383Z,28.31
2023-04-09T11:29:29.390Z,28.31
2023-04-09T11:30:28.454Z,28.31
2023-04-09T11:31:29.661Z,28.31
2023-04-09T11:32:27.772Z,28.31
2023-04-09T11:33:27.880Z,28.31
2023-04-09T11:34:28.125Z,28.31
2023-04-09T11:35:29.224Z,28.63
2023-04-09T11:36:28.604Z,28.63
2023-04-09T11:37:28.654Z,28.31
2023-04-09T11:38:29.392Z,28.63
2023-04-09T11:39:30.958Z,28.96
2023-04-09T11:40:30.073Z,28.31
2023-04-09T11:41:29.278Z,27.99
2023-04-09T11:42:31.972Z,28.63
2023-04-09T11:43:31.635Z,28.63
2023-04-09T11:44:29.722Z,28.63
2023-04-09T11:45:31.817Z,28.31
2023-04-09T11:46:30.193Z,28.31
2023-04-09T11:47:30.666Z,28.63
2023-04-09T11:48:31.226Z,27.99
2023-04-09T11:49:30.517Z,28.96
2023-04-09T11:50:31.799Z,28.63
2023-04-09T11:51:32.231Z,28.31
2023-04-09T11:52:30.883Z,28.96
2023-04-09T11:53:31.862Z,29.28
2023-04-09T11:54:31.939Z,29.28
2023-04-09T11:55:32.049Z,28.63
2023-04-09T11:56:33.412Z,28.31
2023-04-09T11:57:32.555Z,29.28
2023-04-09T11:58:31.711Z,28.96
2023-04-09T11:59:31.815Z,28.96
2023-04-09T12:00:33.893Z,28.96
2023-04-09T12:01:33.150Z,28.96
2023-04-09T12:02:33.502Z,28.96
2023-04-09T12:03:33.674Z,28.96
2023-04-09T12:04:33.627Z,28.63
2023-04-09T12:05:34.493Z,28.96
2023-04-09T12:06:35.085Z,28.96
2023-04-09T12:07:33.310Z,28.96
2023-04-09T12:08:33.395Z,29.28
2023-04-09T12:09:35.056Z,28.96
2023-04-09T12:10:33.670Z,29.28
2023-04-09T12:11:33.836Z,28.96
2023-04-09T12:12:33.950Z,29.28
2023-04-09T12:13:37.127Z,29.60
2023-04-09T12:14:34.244Z,29.28
2023-04-09T12:15:34.351Z,28.96
2023-04-09T12:16:34.472Z,29.28
2023-04-09T12:17:34.612Z,29.28
2023-04-09T12:18:34.828Z,29.92
2023-04-09T12:19:34.943Z,29.92
2023-04-09T12:20:36.121Z,29.60
2023-04-09T12:21:36.194Z,28.96
2023-04-09T12:22:35.364Z,29.28
2023-04-09T12:23:35.492Z,28.96
2023-04-09T12:24:35.709Z,29.60
2023-04-09T12:25:35.858Z,29.28
2023-04-09T12:26:36.031Z,29.28
2023-04-09T12:27:36.101Z,29.60
2023-04-09T12:28:37.159Z,29.60
2023-04-09T12:29:42.041Z,29.28
2023-04-09T12:30:36.843Z,29.92
2023-04-09T12:31:38.463Z,29.28
2023-04-09T12:32:37.233Z,29.28
2023-04-09T12:33:37.334Z,29.28
2023-04-09T12:34:38.519Z,28.96
2023-04-09T12:35:41.405Z,29.60
2023-04-09T12:36:39.157Z,29.28
2023-04-09T12:37:38.351Z,29.60
2023-04-09T12:38:39.944Z,29.28
2023-04-09T12:39:41.104Z,29.60
2023-04-09T12:40:38.742Z,29.60
2023-04-09T12:41:39.824Z,29.92
2023-04-09T12:42:39.929Z,29.28
2023-04-09T12:43:40.115Z,29.28
2023-04-09T12:44:41.710Z,29.28
2023-04-09T12:45:41.505Z,29.28
2023-04-09T12:46:40.658Z,29.28
2023-04-09T12:47:40.639Z,29.28
2023-04-09T12:48:41.901Z,29.28
2023-04-09T12:49:42.236Z,29.60
2023-04-09T12:50:40.579Z,28.96
2023-04-09T12:51:40.785Z,29.28
2023-04-09T12:52:40.886Z,29.60
2023-04-09T12:53:41.064Z,29.28
2023-04-09T12:54:42.786Z,29.28
2023-04-09T12:55:44.800Z,29.60